Time,TemperatureF,DewpointF,PressureIn,WindDirection,WindDirectionDegrees,WindSpeedMPH,WindSpeedGustMPH,Humidity,HourlyPrecipIn,Conditions,Clouds,dailyrainin,SoftwareType,DateUTC
2013-04-09 00:07:00,46.1,43.0,29.97,NW,319,0.0,0.0,88,0.00,,,0.00,weatherlink.com 1.10,2013-04-09 04:07:00,
2013-04-09 00:22:00,45.5,43.0,29.97,NW,319,0.0,0.0,90,0.00,,,0.00,weatherlink.com 1.10,2013-04-09 04:22:00,
2013-04-09 00:37:00,45.3,43.0,29.97,NW,319,0.0,0.0,91,0.00,,,0.00,weatherlink.com 1.10,2013-04-09 04:37:00,
2013-04-09 00:52:00,45.0,43.0,29.97,NW,319,0.0,1.0,92,0.00,,,0.00,weatherlink.com 1.10,2013-04-09 04:52:00,
2013-04-09 01:07:00,45.1,43.0,29.98,NW,319,0.0,0.0,93,0.00,,,0.00,weatherlink.com 1.10,2013-04-09 05:07:00,
2013-04-09 01:22:00,45.2,43.0,29.98,NW,319,0.0,0.0,93,0.00,,,0.00,weatherlink.com 1.10,2013-04-09 05:22:00,
2013-04-09 01:37:00,45.6,44.0,29.98,NW,319,0.0,0.0,93,0.00,,,0.00,weatherlink.com 1.10,2013-04-09 05:37:00,
2013-04-09 01:52:00,45.8,44.0,29.99,NW,319,0.0,2.0,92,0.00,,,0.00,weatherlink.com 1.10,2013-04-09 05:52:00,
2013-04-09 02:07:00,45.6,44.0,29.99,NW,319,0.0,0.0,92,0.00,,,0.00,weatherlink.com 1.10,2013-04-09 06:07:00,
2013-04-09 02:22:00,46.2,44.0,29.99,NW,319,0.0,2.0,93,0.00,,,0.00,weatherlink.com 1.10,2013-04-09 06:22:00,
2013-04-09 02:37:00,46.5,45.0,29.99,NW,319,0.0,1.0,93,0.00,,,0.00,weatherlink.com 1.10,2013-04-09 06:37:00,
2013-04-09 02:52:00,46.9,45.0,29.99,NW,319,0.0,0.0,93,0.00,,,0.00,weatherlink.com 1.10,2013-04-09 06:52:00,
2013-04-09 03:07:00,46.9,45.0,29.99,NW,319,0.0,0.0,93,0.00,,,0.00,weatherlink.com 1.10,2013-04-09 07:07:00,
2013-04-09 03:22:00,47.2,46.0,29.98,NW,319,0.0,0.0,94,0.00,,,0.00,weatherlink.com 1.10,2013-04-09 07:22:00,
2013-04-09 03:37:00,47.6,45.0,29.98,NW,319,0.0,2.0,92,0.00,,,0.00,weatherlink.com 1.10,2013-04-09 07:37:00,
2013-04-09 03:52:00,47.6,45.0,29.99,NW,319,0.0,1.0,92,0.00,,,0.00,weatherlink.com 1.10,2013-04-09 07:52:00,
2013-04-09 04:07:00,48.1,46.0,29.98,ESE,111,2.0,4.0,91,0.00,,,0.00,weatherlink.com 1.10,2013-04-09 08:07:00,
2013-04-09 04:22:00,48.7,46.0,29.99,ESE,111,1.0,4.0,89,0.00,,,0.00,weatherlink.com 1.10,2013-04-09 08:22:00,
2013-04-09 04:37:00,49.0,45.0,29.99,SSE,156,0.0,7.0,87,0.00,,,0.00,weatherlink.com 1.10,2013-04-09 08:37:00,
2013-04-09 04:52:00,48.6,45.0,29.99,ESE,103,2.0,5.0,87,0.00,,,0.00,weatherlink.com 1.10,2013-04-09 08:52:00,
2013-04-09 05:07:00,48.1,45.0,29.98,ESE,103,0.0,6.0,88,0.00,,,0.00,weatherlink.com 1.10,2013-04-09 09:07:00,
2013-04-09 05:22:00,48.6,45.0,29.99,ESE,103,2.0,7.0,86,0.00,,,0.00,weatherlink.com 1.10,2013-04-09 09:22:00,
2013-04-09 05:37:00,48.1,44.0,29.99,ESE,103,1.0,5.0,86,0.00,,,0.00,weatherlink.com 1.10,2013-04-09 09:37:00,
2013-04-09 05:52:00,47.9,44.0,29.99,ESE,103,3.0,5.0,87,0.00,,,0.00,weatherlink.com 1.10,2013-04-09 09:52:00,
2013-04-09 06:07:00,47.8,44.0,30.00,ESE,103,1.0,2.0,86,0.00,,,0.00,weatherlink.com 1.10,2013-04-09 10:07:00,
2013-04-09 06:22:00,47.2,44.0,29.99,ESE,103,3.0,6.0,87,0.00,,,0.00,weatherlink.com 1.10,2013-04-09 10:22:00,
2013-04-09 06:37:00,47.3,44.0,29.98,ESE,103,3.0,7.0,88,0.00,,,0.00,weatherlink.com 1.10,2013-04-09 10:37:00,
2013-04-09 06:52:00,47.9,44.0,29.98,ESE,111,7.0,8.0,87,0.00,,,0.00,weatherlink.com 1.10,2013-04-09 10:52:00,
2013-04-09 07:07:00,48.8,44.0,29.99,ESE,108,3.0,8.0,84,0.00,,,0.00,weatherlink.com 1.10,2013-04-09 11:07:00,
2013-04-09 07:22:00,49.0,44.0,30.00,SE,128,4.0,8.0,84,0.00,,,0.00,weatherlink.com 1.10,2013-04-09 11:22:00,
2013-04-09 07:37:00,49.5,45.0,30.00,ESE,108,7.0,8.0,83,0.00,,,0.00,weatherlink.com 1.10,2013-04-09 11:37:00,
2013-04-09 07:52:00,49.9,45.0,30.00,ESE,104,11.0,11.0,83,0.00,,,0.00,weatherlink.com 1.10,2013-04-09 11:52:00,
2013-04-09 08:08:00,50.3,45.0,29.99,SE,129,9.0,11.0,82,0.00,,,0.00,weatherlink.com 1.10,2013-04-09 12:08:00,
2013-04-09 08:23:00,50.5,45.0,29.98,SE,139,6.0,14.0,82,0.00,,,0.00,weatherlink.com 1.10,2013-04-09 12:23:00,
2013-04-09 08:38:00,51.3,45.0,29.98,SE,125,9.0,14.0,80,0.00,,,0.00,weatherlink.com 1.10,2013-04-09 12:38:00,
2013-04-09 08:53:00,52.2,46.0,29.98,ESE,120,12.0,14.0,80,0.00,,,0.00,weatherlink.com 1.10,2013-04-09 12:53:00,
2013-04-09 09:08:00,53.0,47.0,29.99,ESE,123,11.0,14.0,79,0.00,,,0.00,weatherlink.com 1.10,2013-04-09 13:08:00,
2013-04-09 09:23:00,53.0,47.0,29.99,SSE,150,7.0,14.0,79,0.00,,,0.00,weatherlink.com 1.10,2013-04-09 13:23:00,
2013-04-09 09:38:00,53.2,47.0,29.98,SSE,157,9.0,16.0,80,0.00,,,0.00,weatherlink.com 1.10,2013-04-09 13:38:00,
2013-04-09 09:53:00,53.9,47.0,29.97,ESE,121,14.0,16.0,78,0.00,,,0.00,weatherlink.com 1.10,2013-04-09 13:53:00,
2013-04-09 10:08:00,54.5,47.0,29.96,SE,136,9.0,16.0,77,0.00,,,0.00,weatherlink.com 1.10,2013-04-09 14:08:00,
2013-04-09 10:23:00,54.8,48.0,29.95,SE,142,14.0,18.0,77,0.00,,,0.00,weatherlink.com 1.10,2013-04-09 14:23:00,
2013-04-09 10:38:00,55.6,49.0,29.95,SSE,148,9.0,15.0,77,0.00,,,0.00,weatherlink.com 1.10,2013-04-09 14:38:00,
2013-04-09 10:53:00,57.1,50.0,29.95,SE,135,11.0,15.0,76,0.00,,,0.00,weatherlink.com 1.10,2013-04-09 14:53:00,
2013-04-09 11:08:00,57.8,50.0,29.95,SE,139,12.0,17.0,74,0.00,,,0.00,weatherlink.com 1.10,2013-04-09 15:08:00,
2013-04-09 11:23:00,57.8,50.0,29.95,SE,146,8.0,13.0,76,0.00,,,0.00,weatherlink.com 1.10,2013-04-09 15:23:00,
2013-04-09 11:38:00,58.2,51.0,29.94,SE,136,7.0,12.0,76,0.00,,,0.00,weatherlink.com 1.10,2013-04-09 15:38:00,
2013-04-09 11:53:00,60.0,53.0,29.94,SE,128,10.0,12.0,77,0.00,,,0.00,weatherlink.com 1.10,2013-04-09 15:53:00,
2013-04-09 12:08:00,62.0,54.0,29.93,SSE,149,9.0,13.0,74,0.00,,,0.00,weatherlink.com 1.10,2013-04-09 16:08:00,
2013-04-09 12:23:00,63.5,54.0,29.91,SSE,150,8.0,14.0,72,0.00,,,0.00,weatherlink.com 1.10,2013-04-09 16:23:00,
2013-04-09 12:38:00,65.0,55.0,29.90,SE,146,13.0,15.0,71,0.00,,,0.00,weatherlink.com 1.10,2013-04-09 16:38:00,
2013-04-09 13:08:00,67.9,58.0,29.88,SE,145,7.0,15.0,70,0.00,,,0.00,weatherlink.com 1.10,2013-04-09 17:08:00,
2013-04-09 13:24:00,70.3,59.0,29.87,South,173,8.0,14.0,68,0.00,,,0.00,weatherlink.com 1.10,2013-04-09 17:24:00,
2013-04-09 13:54:00,74.1,61.0,29.84,SSE,163,9.0,16.0,64,0.00,,,0.00,weatherlink.com 1.10,2013-04-09 17:54:00,
2013-04-09 14:09:00,74.9,61.0,29.83,SSW,205,7.0,14.0,63,0.00,,,0.00,weatherlink.com 1.10,2013-04-09 18:09:00,
2013-04-09 14:24:00,76.1,61.0,29.83,WSW,257,3.0,21.0,59,0.00,,,0.00,weatherlink.com 1.10,2013-04-09 18:24:00,
2013-04-09 14:39:00,75.6,61.0,29.83,SW,231,3.0,17.0,60,0.00,,,0.00,weatherlink.com 1.10,2013-04-09 18:39:00,
2013-04-09 14:54:00,76.5,59.0,29.82,South,186,13.0,19.0,55,0.00,,,0.00,weatherlink.com 1.10,2013-04-09 18:54:00,
2013-04-09 15:09:00,77.7,60.0,29.82,SSE,151,7.0,15.0,54,0.00,,,0.00,weatherlink.com 1.10,2013-04-09 19:09:00,
2013-04-09 15:24:00,76.7,60.0,29.82,SSE,149,6.0,14.0,57,0.00,,,0.00,weatherlink.com 1.10,2013-04-09 19:24:00,
2013-04-09 15:39:00,76.5,60.0,29.82,SSE,150,10.0,21.0,57,0.00,,,0.00,weatherlink.com 1.10,2013-04-09 19:39:00,
2013-04-09 15:54:00,76.6,60.0,29.82,South,175,3.0,15.0,56,0.00,,,0.00,weatherlink.com 1.10,2013-04-09 19:54:00,
2013-04-09 16:09:00,76.4,59.0,29.82,SW,226,4.0,11.0,56,0.00,,,0.00,weatherlink.com 1.10,2013-04-09 20:09:00,
2013-04-09 16:24:00,76.3,59.0,29.82,WSW,247,9.0,13.0,56,0.00,,,0.00,weatherlink.com 1.10,2013-04-09 20:24:00,
2013-04-09 16:39:00,75.8,60.0,29.82,WSW,240,5.0,13.0,58,0.00,,,0.00,weatherlink.com 1.10,2013-04-09 20:39:00,
2013-04-09 16:54:00,75.3,59.0,29.82,WNW,297,4.0,12.0,58,0.00,,,0.00,weatherlink.com 1.10,2013-04-09 20:54:00,
2013-04-09 17:09:00,75.3,59.0,29.82,SSW,200,2.0,18.0,57,0.00,,,0.00,weatherlink.com 1.10,2013-04-09 21:09:00,
2013-04-09 17:24:00,75.2,59.0,29.81,SSW,205,2.0,11.0,58,0.00,,,0.00,weatherlink.com 1.10,2013-04-09 21:24:00,
2013-04-09 17:39:00,75.0,59.0,29.81,West,278,3.0,8.0,58,0.00,,,0.00,weatherlink.com 1.10,2013-04-09 21:39:00,
2013-04-09 17:54:00,75.4,59.0,29.81,WSW,258,3.0,9.0,58,0.00,,,0.00,weatherlink.com 1.10,2013-04-09 21:54:00,
2013-04-09 18:09:00,75.6,60.0,29.82,SSW,200,4.0,9.0,58,0.00,,,0.00,weatherlink.com 1.10,2013-04-09 22:09:00,
2013-04-09 18:24:00,75.9,59.0,29.82,WSW,245,4.0,11.0,57,0.00,,,0.00,weatherlink.com 1.10,2013-04-09 22:24:00,
2013-04-09 18:39:00,75.6,59.0,29.83,West,269,4.0,16.0,57,0.00,,,0.00,weatherlink.com 1.10,2013-04-09 22:39:00,
2013-04-09 18:54:00,75.0,58.0,29.83,SSW,209,4.0,16.0,55,0.00,,,0.00,weatherlink.com 1.10,2013-04-09 22:54:00,
2013-04-09 19:09:00,74.4,58.0,29.84,SSE,162,2.0,10.0,57,0.00,,,0.00,weatherlink.com 1.10,2013-04-09 23:09:00,
2013-04-09 19:24:00,73.9,58.0,29.84,WSW,253,6.0,11.0,58,0.00,,,0.00,weatherlink.com 1.10,2013-04-09 23:24:00,
2013-04-09 19:39:00,73.4,58.0,29.84,South,180,2.0,8.0,59,0.00,,,0.00,weatherlink.com 1.10,2013-04-09 23:39:00,
2013-04-09 19:54:00,73.1,59.0,29.84,SSW,213,0.0,8.0,61,0.00,,,0.00,weatherlink.com 1.10,2013-04-09 23:54:00,
2013-04-09 20:09:00,72.6,59.0,29.85,SW,221,0.0,7.0,62,0.00,,,0.00,weatherlink.com 1.10,2013-04-10 00:09:00,
2013-04-09 20:24:00,72.0,59.0,29.85,WSW,246,1.0,6.0,64,0.00,,,0.00,weatherlink.com 1.10,2013-04-10 00:24:00,
2013-04-09 20:39:00,71.5,59.0,29.85,WSW,252,0.0,6.0,66,0.00,,,0.00,weatherlink.com 1.10,2013-04-10 00:39:00,
2013-04-09 20:54:00,71.4,60.0,29.86,West,261,3.0,8.0,67,0.00,,,0.00,weatherlink.com 1.10,2013-04-10 00:54:00,
2013-04-09 21:09:00,71.4,61.0,29.86,SW,215,4.0,13.0,69,0.00,,,0.00,weatherlink.com 1.10,2013-04-10 01:09:00,
2013-04-09 21:24:00,71.0,61.0,29.86,SW,229,0.0,10.0,70,0.00,,,0.00,weatherlink.com 1.10,2013-04-10 01:24:00,
2013-04-09 21:39:00,70.7,61.0,29.86,SSW,205,3.0,9.0,71,0.00,,,0.00,weatherlink.com 1.10,2013-04-10 01:39:00,
2013-04-09 21:54:00,70.5,61.0,29.86,South,189,0.0,5.0,72,0.00,,,0.00,weatherlink.com 1.10,2013-04-10 01:54:00,
2013-04-09 22:09:00,70.3,61.0,29.86,WSW,240,0.0,8.0,72,0.00,,,0.00,weatherlink.com 1.10,2013-04-10 02:09:00,
2013-04-09 22:24:00,69.9,61.0,29.86,WSW,244,0.0,5.0,73,0.00,,,0.00,weatherlink.com 1.10,2013-04-10 02:24:00,
2013-04-09 22:39:00,69.4,61.0,29.86,WSW,240,1.0,5.0,74,0.00,,,0.00,weatherlink.com 1.10,2013-04-10 02:39:00,
2013-04-09 22:54:00,69.3,61.0,29.86,WSW,254,4.0,4.0,74,0.00,,,0.00,weatherlink.com 1.10,2013-04-10 02:54:00,
2013-04-09 23:09:00,69.1,61.0,29.86,West,262,2.0,5.0,75,0.00,,,0.00,weatherlink.com 1.10,2013-04-10 03:09:00,
2013-04-09 23:24:00,68.7,61.0,29.86,WSW,254,3.0,4.0,77,0.00,,,0.00,weatherlink.com 1.10,2013-04-10 03:24:00,
2013-04-09 23:39:00,67.8,61.0,29.85,WSW,254,0.0,0.0,79,0.00,,,0.00,weatherlink.com 1.10,2013-04-10 03:39:00,
2013-04-09 23:54:00,66.6,61.0,29.85,WSW,254,0.0,1.0,81,0.00,,,0.00,weatherlink.com 1.10,2013-04-10 03:54:00,